createdAt,value
2023-05-28T00:01:48.943Z,23.05
2023-05-28T00:03:54.314Z,23.03
2023-05-28T00:06:00.237Z,23.05
2023-05-28T00:08:05.779Z,23.05
2023-05-28T00:10:11.216Z,23.05
2023-05-28T00:12:16.456Z,23.06
2023-05-28T00:14:21.899Z,23.06
2023-05-28T00:16:27.581Z,23.03
2023-05-28T00:18:33.285Z,23.03
2023-05-28T00:20:38.755Z,23.02
2023-05-28T00:22:44.366Z,23.02
2023-05-28T00:24:49.812Z,23.01
2023-05-28T00:26:55.760Z,23.01
2023-05-28T00:29:01.210Z,23.01
2023-05-28T00:31:06.585Z,22.99
2023-05-28T00:33:12.232Z,22.99
2023-05-28T00:35:17.623Z,22.98
2023-05-28T00:37:22.904Z,22.97
2023-05-28T00:39:28.406Z,22.96
2023-05-28T00:41:33.744Z,22.96
2023-05-28T00:43:39.392Z,22.96
2023-05-28T00:45:44.855Z,22.94
2023-05-28T00:47:50.718Z,22.95
2023-05-28T00:49:56.117Z,22.96
2023-05-28T00:52:01.453Z,22.94
2023-05-28T00:54:06.903Z,22.93
2023-05-28T00:56:12.333Z,22.92
2023-05-28T00:58:17.672Z,22.93
2023-05-28T01:00:23.331Z,22.94
2023-05-28T01:02:28.663Z,22.94
2023-05-28T01:04:33.987Z,22.94
2023-05-28T01:06:39.332Z,22.92
2023-05-28T01:08:44.671Z,22.92
2023-05-28T01:10:50.237Z,22.93
2023-05-28T01:12:55.858Z,22.92
2023-05-28T01:15:01.098Z,22.92
2023-05-28T01:17:06.632Z,22.92
2023-05-28T01:19:12.279Z,22.89
2023-05-28T01:21:17.513Z,22.9
2023-05-28T01:23:23.157Z,22.88
2023-05-28T01:25:28.560Z,22.88
2023-05-28T01:27:33.949Z,22.87
2023-05-28T01:29:39.280Z,22.87
2023-05-28T01:31:44.758Z,22.87
2023-05-28T01:33:50.361Z,22.85
2023-05-28T01:35:55.759Z,22.84
2023-05-28T01:38:01.140Z,22.84
2023-05-28T01:40:06.377Z,22.82
2023-05-28T01:42:11.607Z,22.79
2023-05-28T01:44:16.943Z,22.8
2023-05-28T01:46:22.308Z,22.79
2023-05-28T01:48:27.622Z,22.79
2023-05-28T01:50:33.074Z,22.8
2023-05-28T01:52:38.500Z,22.79
2023-05-28T01:54:43.846Z,22.77
2023-05-28T01:56:49.180Z,22.73
2023-05-28T01:58:54.409Z,22.72
2023-05-28T02:00:59.550Z,22.7
2023-05-28T02:03:04.900Z,22.7
2023-05-28T02:05:10.526Z,22.7
2023-05-28T02:07:15.964Z,22.69
2023-05-28T02:09:21.411Z,22.68
2023-05-28T02:11:26.750Z,22.68
2023-05-28T02:13:31.982Z,22.67
2023-05-28T02:17:07.629Z,22.63
2023-05-28T02:19:12.874Z,22.66
2023-05-28T02:21:18.212Z,22.66
2023-05-28T02:23:23.549Z,22.66
2023-05-28T02:25:28.999Z,22.64
2023-05-28T02:27:34.220Z,22.62
2023-05-28T02:29:39.666Z,22.61
2023-05-28T02:31:45.000Z,22.6
2023-05-28T02:33:50.445Z,22.56
2023-05-28T02:35:55.995Z,22.55
2023-05-28T02:38:01.430Z,22.54
2023-05-28T02:40:06.764Z,22.52
2023-05-28T02:42:12.203Z,22.52
2023-05-28T02:44:17.543Z,22.49
2023-05-28T02:46:22.793Z,22.49
2023-05-28T02:48:28.320Z,22.5
2023-05-28T02:50:33.822Z,22.5
2023-05-28T02:52:39.234Z,22.49
2023-05-28T02:54:44.538Z,22.49
2023-05-28T02:56:49.775Z,22.47
2023-05-28T02:58:55.212Z,22.48
2023-05-28T03:01:00.471Z,22.45
2023-05-28T03:03:05.958Z,22.44
2023-05-28T03:05:11.683Z,22.45
2023-05-28T03:07:17.029Z,22.47
2023-05-28T03:09:22.411Z,22.46
2023-05-28T03:11:27.858Z,22.46
2023-05-28T03:13:33.290Z,22.44
2023-05-28T03:15:38.936Z,22.43
2023-05-28T03:17:44.399Z,22.43
2023-05-28T03:19:50.022Z,22.4
2023-05-28T03:21:55.570Z,22.39
2023-05-28T03:24:01.925Z,22.38
2023-05-28T03:26:07.266Z,22.35
2023-05-28T03:28:12.613Z,22.34
2023-05-28T03:30:17.939Z,22.33
2023-05-28T03:32:23.330Z,22.3
2023-05-28T03:34:28.834Z,22.29
2023-05-28T03:36:34.164Z,22.3
2023-05-28T03:38:39.396Z,22.28
2023-05-28T03:40:44.631Z,22.28
2023-05-28T03:42:50.181Z,22.27
2023-05-28T03:44:55.621Z,22.28
2023-05-28T03:47:00.846Z,22.29
2023-05-28T03:49:06.294Z,22.27
2023-05-28T03:51:11.831Z,22.27
2023-05-28T03:53:17.066Z,22.27
2023-05-28T03:55:22.414Z,22.27
2023-05-28T03:57:27.647Z,22.27
2023-05-28T03:59:32.978Z,22.25
2023-05-28T04:01:38.316Z,22.24
2023-05-28T04:03:43.689Z,22.22
2023-05-28T04:05:49.498Z,22.21
2023-05-28T04:07:55.351Z,22.21
2023-05-28T04:10:00.687Z,22.22
2023-05-28T04:12:06.232Z,22.21
2023-05-28T04:14:11.471Z,22.23
2023-05-28T04:16:16.943Z,22.22
2023-05-28T04:18:22.444Z,22.24
2023-05-28T04:20:27.717Z,22.21
2023-05-28T04:22:33.124Z,22.22
2023-05-28T04:24:38.362Z,22.22
2023-05-28T04:26:43.696Z,22.22
2023-05-28T04:28:49.074Z,22.22
2023-05-28T04:30:54.376Z,22.22
2023-05-28T04:32:59.648Z,22.21
2023-05-28T04:35:05.065Z,22.22
2023-05-28T04:37:10.387Z,22.22
2023-05-28T04:39:15.723Z,22.21
2023-05-28T04:41:20.961Z,22.21
2023-05-28T04:43:26.129Z,22.21
2023-05-28T04:45:31.428Z,22.2
2023-05-28T04:47:36.685Z,22.21
2023-05-28T04:49:42.223Z,22.22
2023-05-28T04:51:47.648Z,22.24
2023-05-28T04:53:52.887Z,22.24
2023-05-28T04:55:58.122Z,22.23
2023-05-28T04:58:03.770Z,22.24
2023-05-28T05:00:09.106Z,22.26
2023-05-28T05:02:14.590Z,22.24
2023-05-28T05:04:20.030Z,22.26
2023-05-28T05:06:25.841Z,22.26
2023-05-28T05:08:31.112Z,22.24
2023-05-28T05:10:36.411Z,22.25
2023-05-28T05:12:41.756Z,22.24
2023-05-28T05:14:47.008Z,22.24
2023-05-28T05:16:52.536Z,22.26
2023-05-28T05:18:57.967Z,22.28
2023-05-28T05:21:03.562Z,22.26
2023-05-28T05:23:08.845Z,22.27
2023-05-28T05:25:14.185Z,22.27
2023-05-28T05:27:19.530Z,22.28
2023-05-28T05:29:24.766Z,22.26
2023-05-28T05:31:30.216Z,22.28
2023-05-28T05:33:35.854Z,22.28
2023-05-28T05:35:41.215Z,22.26
2023-05-28T05:37:46.521Z,22.25
2023-05-28T05:39:51.856Z,22.25
2023-05-28T05:41:57.090Z,22.26
2023-05-28T05:44:02.330Z,22.26
2023-05-28T05:46:07.636Z,22.25
2023-05-28T05:48:13.151Z,22.27
2023-05-28T05:50:18.450Z,22.28
2023-05-28T05:52:23.783Z,22.28
2023-05-28T05:54:29.011Z,22.26
2023-05-28T05:56:34.759Z,22.24
2023-05-28T05:58:40.200Z,22.26
2023-05-28T06:00:45.446Z,22.29
2023-05-28T06:02:51.209Z,22.29
2023-05-28T06:04:57.177Z,22.3
2023-05-28T06:07:02.596Z,22.29
2023-05-28T06:09:08.219Z,22.27
2023-05-28T06:11:13.655Z,22.29
2023-05-28T06:13:19.103Z,22.31
2023-05-28T06:15:24.336Z,22.3
2023-05-28T06:17:29.618Z,22.32
2023-05-28T06:19:35.236Z,22.32
2023-05-28T06:21:40.655Z,22.32
2023-05-28T06:23:45.995Z,22.35
2023-05-28T06:25:51.735Z,22.37
2023-05-28T06:27:57.772Z,22.37
2023-05-28T06:30:03.139Z,22.39
2023-05-28T06:32:08.375Z,22.39
2023-05-28T06:34:13.814Z,22.37
2023-05-28T06:36:19.153Z,22.36
2023-05-28T06:38:24.486Z,22.36
2023-05-28T06:40:31.342Z,22.38
2023-05-28T06:42:36.702Z,22.38
2023-05-28T06:44:42.144Z,22.39
2023-05-28T06:46:47.412Z,22.4
2023-05-28T06:48:53.021Z,22.4
2023-05-28T06:50:58.459Z,22.43
2023-05-28T06:53:03.795Z,22.45
2023-05-28T06:55:09.118Z,22.44
2023-05-28T06:57:14.491Z,22.45
2023-05-28T06:59:19.711Z,22.44
2023-05-28T07:01:25.057Z,22.45
2023-05-28T07:03:30.486Z,22.48
2023-05-28T07:05:35.868Z,22.48
2023-05-28T07:07:41.279Z,22.51
2023-05-28T07:09:46.603Z,22.54
2023-05-28T07:11:52.142Z,22.54
2023-05-28T07:13:57.708Z,22.59
2023-05-28T07:16:03.279Z,22.57
2023-05-28T07:18:08.738Z,22.58
2023-05-28T07:20:14.459Z,22.62
2023-05-28T07:22:20.166Z,22.66
2023-05-28T07:24:26.321Z,22.68
2023-05-28T07:26:31.763Z,22.68
2023-05-28T07:28:37.204Z,22.7
2023-05-28T07:30:42.752Z,22.69
2023-05-28T07:32:48.241Z,22.73
2023-05-28T07:34:53.736Z,22.76
2023-05-28T07:36:59.281Z,22.81
2023-05-28T07:39:04.713Z,22.83
2023-05-28T07:41:09.951Z,22.84
2023-05-28T07:43:15.411Z,22.89
2023-05-28T07:45:20.835Z,22.93
2023-05-28T07:47:26.181Z,22.91
2023-05-28T07:49:31.710Z,22.9
2023-05-28T07:51:36.951Z,22.85
2023-05-28T07:53:42.284Z,22.8
2023-05-28T07:55:47.726Z,22.72
2023-05-28T07:57:53.070Z,22.64
2023-05-28T07:59:58.399Z,22.57
2023-05-28T08:02:03.873Z,22.51
2023-05-28T08:04:09.507Z,22.46
2023-05-28T08:06:15.433Z,22.42
2023-05-28T08:08:20.773Z,22.39
2023-05-28T08:10:26.114Z,22.38
2023-05-28T08:12:31.568Z,22.38
2023-05-28T08:14:37.199Z,22.38
2023-05-28T08:16:42.880Z,22.4
2023-05-28T08:18:48.488Z,22.44
2023-05-28T08:20:53.785Z,22.47
2023-05-28T08:22:59.270Z,22.51
2023-05-28T08:25:04.492Z,22.49
2023-05-28T08:27:10.040Z,22.46
2023-05-28T08:29:15.380Z,22.45
2023-05-28T08:31:20.810Z,22.42
2023-05-28T08:33:26.396Z,22.41
2023-05-28T08:35:31.812Z,22.46
2023-05-28T08:37:37.142Z,22.53
2023-05-28T08:39:42.680Z,22.62
2023-05-28T08:41:48.226Z,22.65
2023-05-28T08:43:53.767Z,22.71
2023-05-28T08:45:59.232Z,22.74
2023-05-28T08:48:06.422Z,22.75
2023-05-28T08:50:16.064Z,22.77
2023-05-28T08:52:21.372Z,22.76
2023-05-28T08:54:26.816Z,22.75
2023-05-28T08:56:32.045Z,22.75
2023-05-28T08:58:37.505Z,22.79
2023-05-28T09:00:42.853Z,22.83
2023-05-28T09:02:48.311Z,22.84
2023-05-28T09:04:53.899Z,22.9
2023-05-28T09:07:01.488Z,22.89
2023-05-28T09:09:07.033Z,22.93
2023-05-28T09:11:12.280Z,22.96
2023-05-28T09:13:17.606Z,22.98
2023-05-28T09:15:23.052Z,23.01
2023-05-28T09:17:28.417Z,23
2023-05-28T09:19:33.925Z,23.01
2023-05-28T09:21:39.568Z,22.99
2023-05-28T09:23:45.516Z,22.97
2023-05-28T09:25:51.305Z,22.97
2023-05-28T09:27:57.869Z,22.99
2023-05-28T09:30:03.691Z,23.03
2023-05-28T09:32:09.435Z,23.05
2023-05-28T09:34:14.879Z,23.12
2023-05-28T09:36:20.421Z,23.15
2023-05-28T09:38:25.736Z,23.16
2023-05-28T09:40:31.026Z,23.19
2023-05-28T09:42:36.255Z,23.24
2023-05-28T09:44:41.560Z,23.26
2023-05-28T09:46:47.282Z,23.26
2023-05-28T09:48:52.764Z,23.28
2023-05-28T09:50:57.948Z,23.33
2023-05-28T09:53:03.225Z,23.35
2023-05-28T09:55:08.770Z,23.34
2023-05-28T09:57:14.206Z,23.31
2023-05-28T09:59:19.461Z,23.27
2023-05-28T10:01:24.912Z,23.28
2023-05-28T10:03:30.470Z,23.3
2023-05-28T10:05:36.788Z,23.29
2023-05-28T10:07:42.228Z,23.36
2023-05-28T10:09:47.568Z,23.41
2023-05-28T10:11:53.206Z,23.39
2023-05-28T10:13:58.648Z,23.44
2023-05-28T10:16:04.011Z,23.41
2023-05-28T10:18:09.695Z,23.47
2023-05-28T10:20:15.208Z,23.48
2023-05-28T10:22:20.730Z,23.47
2023-05-28T10:24:26.170Z,23.47
2023-05-28T10:26:31.604Z,23.49
2023-05-28T10:28:36.947Z,23.47
2023-05-28T10:30:42.483Z,23.48
2023-05-28T10:32:47.851Z,23.52
2023-05-28T10:34:53.465Z,23.53
2023-05-28T10:37:02.963Z,23.58
2023-05-28T10:39:09.072Z,23.61
2023-05-28T10:41:14.246Z,23.59
2023-05-28T10:43:19.631Z,23.68
2023-05-28T10:45:24.956Z,23.67
2023-05-28T10:47:30.244Z,23.74
2023-05-28T10:49:35.571Z,23.75
2023-05-28T10:51:40.745Z,23.75
2023-05-28T10:53:46.110Z,23.75
2023-05-28T10:55:51.626Z,23.74
2023-05-28T10:57:58.581Z,23.76
2023-05-28T11:00:04.048Z,23.78
2023-05-28T11:02:09.479Z,23.87
2023-05-28T11:04:14.843Z,23.91
2023-05-28T11:06:20.359Z,23.95
2023-05-28T11:08:25.702Z,23.94
2023-05-28T11:10:32.519Z,23.99
2023-05-28T11:12:38.203Z,23.97
2023-05-28T11:14:43.665Z,24.01
2023-05-28T11:16:49.036Z,23.99
2023-05-28T11:18:55.766Z,23.92
2023-05-28T11:21:02.121Z,23.86
2023-05-28T11:23:07.459Z,23.84
2023-05-28T11:25:12.796Z,23.83
2023-05-28T11:27:18.272Z,23.84
2023-05-28T11:29:23.584Z,23.88
2023-05-28T11:31:28.943Z,23.84
2023-05-28T11:33:34.565Z,23.82
2023-05-28T11:35:40.203Z,23.75
2023-05-28T11:37:45.616Z,23.76
2023-05-28T11:39:51.088Z,23.71
2023-05-28T11:41:56.578Z,23.72
2023-05-28T11:44:01.859Z,23.71
2023-05-28T11:46:07.261Z,23.7
2023-05-28T11:48:12.876Z,23.77
2023-05-28T11:50:18.292Z,23.82
2023-05-28T11:52:23.828Z,23.88
2023-05-28T11:54:29.168Z,23.98
2023-05-28T11:56:34.516Z,24.08
2023-05-28T11:58:39.844Z,24.19
2023-05-28T12:00:45.299Z,24.25
2023-05-28T12:02:50.828Z,24.19
2023-05-28T12:04:56.365Z,24.09
2023-05-28T12:07:01.744Z,24
2023-05-28T12:09:07.344Z,23.98
2023-05-28T12:11:13.010Z,24.01
2023-05-28T12:13:18.432Z,23.98
2023-05-28T12:15:23.777Z,24.04
2023-05-28T12:17:29.115Z,24.04
2023-05-28T12:19:34.307Z,23.99
2023-05-28T12:21:39.538Z,23.98
2023-05-28T12:23:44.810Z,24
2023-05-28T12:25:50.105Z,24.11
2023-05-28T12:27:55.510Z,24.15
2023-05-28T12:30:00.725Z,24.15
2023-05-28T12:32:06.451Z,24.15
2023-05-28T12:34:12.424Z,24.17
2023-05-28T12:36:17.857Z,24.31
2023-05-28T12:38:23.217Z,24.27
2023-05-28T12:40:28.639Z,24.2
2023-05-28T12:42:33.983Z,24.14
2023-05-28T12:44:39.427Z,24.08
2023-05-28T12:46:44.923Z,24.03
2023-05-28T12:48:50.610Z,24.01
2023-05-28T12:50:56.236Z,24.02
2023-05-28T12:53:02.105Z,24.03
2023-05-28T12:55:14.128Z,24.08
2023-05-28T12:57:22.818Z,24.09
2023-05-28T12:59:28.353Z,24.09
2023-05-28T13:01:33.700Z,24.19
2023-05-28T13:03:39.863Z,24.16
2023-05-28T13:05:46.107Z,24.18
2023-05-28T13:07:51.547Z,24.22
2023-05-28T13:09:56.885Z,24.22
2023-05-28T13:12:02.226Z,24.28
2023-05-28T13:14:07.562Z,24.3
2023-05-28T13:16:14.891Z,24.31
2023-05-28T13:18:20.597Z,24.36
2023-05-28T13:20:26.214Z,24.36
2023-05-28T13:22:31.740Z,24.41
2023-05-28T13:24:46.426Z,24.45
2023-05-28T13:26:52.282Z,24.41
2023-05-28T13:28:57.537Z,24.4
2023-05-28T13:31:02.984Z,24.42
2023-05-28T13:33:08.510Z,24.45
2023-05-28T13:35:14.263Z,24.48
2023-05-28T13:37:19.697Z,24.54
2023-05-28T13:39:25.087Z,24.6
2023-05-28T13:41:30.470Z,24.67
2023-05-28T13:43:36.221Z,24.65
2023-05-28T13:45:41.794Z,24.57
2023-05-28T13:47:47.589Z,24.54
2023-05-28T13:49:53.155Z,24.49
2023-05-28T13:51:58.717Z,24.41
2023-05-28T13:54:04.468Z,24.37
2023-05-28T13:56:10.405Z,24.32
2023-05-28T13:58:15.854Z,24.32
2023-05-28T14:00:34.365Z,24.31
2023-05-28T14:02:44.163Z,24.3
2023-05-28T14:04:50.110Z,24.26
2023-05-28T14:06:55.778Z,24.21
2023-05-28T14:09:01.319Z,24.22
2023-05-28T14:11:07.019Z,24.18
2023-05-28T14:13:12.461Z,24.23
2023-05-28T14:15:18.002Z,24.22
2023-05-28T14:17:23.894Z,24.25
2023-05-28T14:19:29.819Z,24.28
2023-05-28T14:21:35.472Z,24.28
2023-05-28T14:23:41.297Z,24.23
2023-05-28T14:25:46.847Z,24.2
2023-05-28T14:28:03.694Z,24.18
2023-05-28T14:30:17.391Z,24.11
2023-05-28T14:32:24.077Z,24.15
2023-05-28T14:34:29.803Z,24.13
2023-05-28T14:36:35.352Z,24.08
2023-05-28T14:38:41.400Z,24.07
2023-05-28T14:40:47.148Z,24.1
2023-05-28T14:42:52.798Z,24.12
2023-05-28T14:44:58.248Z,24.13
2023-05-28T14:47:03.675Z,24.13
2023-05-28T14:49:09.927Z,24.19
2023-05-28T14:51:15.583Z,24.27
2023-05-28T14:53:21.127Z,24.26
2023-05-28T14:55:26.969Z,24.28
2023-05-28T14:57:32.707Z,24.22
2023-05-28T14:59:38.043Z,24.22
2023-05-28T15:01:43.944Z,24.17
2023-05-28T15:03:49.596Z,24.14
2023-05-28T15:05:55.734Z,24.19
2023-05-28T15:08:01.751Z,24.16
2023-05-28T15:10:07.406Z,24.12
2023-05-28T15:12:13.349Z,24.14
2023-05-28T15:14:18.893Z,24.22
2023-05-28T15:16:24.562Z,24.25
2023-05-28T15:18:30.592Z,24.24
2023-05-28T15:20:36.341Z,24.22
2023-05-28T15:22:41.868Z,24.26
2023-05-28T15:24:47.408Z,24.29
2023-05-28T15:26:53.054Z,24.32
2023-05-28T15:28:59.834Z,24.29
2023-05-28T15:31:06.326Z,24.3
2023-05-28T15:33:11.887Z,24.33
2023-05-28T15:35:17.376Z,24.36
2023-05-28T15:37:22.910Z,24.39
2023-05-28T15:39:28.373Z,24.36
2023-05-28T15:41:34.003Z,24.34
2023-05-28T15:43:39.542Z,24.34
2023-05-28T15:45:45.093Z,24.37
2023-05-28T15:47:50.659Z,24.38
2023-05-28T15:49:56.389Z,24.39
2023-05-28T15:52:02.118Z,24.4
2023-05-28T15:54:07.671Z,24.36
2023-05-28T15:56:13.113Z,24.36
2023-05-28T15:58:18.587Z,24.33
2023-05-28T16:00:24.240Z,24.35
2023-05-28T16:02:30.489Z,24.31
2023-05-28T16:04:36.312Z,24.32
2023-05-28T16:06:41.880Z,24.34
2023-05-28T16:08:47.614Z,24.34
2023-05-28T16:10:53.333Z,24.3
2023-05-28T16:12:59.101Z,24.32
2023-05-28T16:15:05.365Z,24.3
2023-05-28T16:17:11.140Z,24.29
2023-05-28T16:19:17.085Z,24.34
2023-05-28T16:21:24.632Z,24.37
2023-05-28T16:23:31.263Z,24.37
2023-05-28T16:25:37.183Z,24.42
2023-05-28T16:27:42.720Z,24.42
2023-05-28T16:29:48.370Z,24.39
2023-05-28T16:31:53.913Z,24.42
2023-05-28T16:33:59.445Z,24.44
2023-05-28T16:36:04.944Z,24.44
2023-05-28T16:38:10.358Z,24.5
2023-05-28T16:40:16.275Z,24.5
2023-05-28T16:42:21.816Z,24.48
2023-05-28T16:44:27.057Z,24.46
2023-05-28T16:46:32.480Z,24.4
2023-05-28T16:48:38.288Z,24.39
2023-05-28T16:50:43.694Z,24.36
2023-05-28T16:52:49.220Z,24.34
2023-05-28T16:54:54.664Z,24.34
2023-05-28T16:57:00.016Z,24.33
2023-05-28T16:59:05.460Z,24.3
2023-05-28T17:01:10.680Z,24.31
2023-05-28T17:03:16.047Z,24.33
2023-05-28T17:05:21.460Z,24.35
2023-05-28T17:07:27.412Z,24.35
2023-05-28T17:09:32.750Z,24.32
2023-05-28T17:11:38.290Z,24.3
2023-05-28T17:13:43.831Z,24.3
2023-05-28T17:15:49.161Z,24.3
2023-05-28T17:17:54.942Z,24.29
2023-05-28T17:20:00.905Z,24.22
2023-05-28T17:22:06.306Z,24.23
2023-05-28T17:24:11.954Z,24.21
2023-05-28T17:26:18.415Z,24.18
2023-05-28T17:28:24.068Z,24.18
2023-05-28T17:30:29.715Z,24.18
2023-05-28T17:32:35.102Z,24.19
2023-05-28T17:34:40.588Z,24.18
2023-05-28T17:36:46.030Z,24.16
2023-05-28T17:38:51.790Z,24.17
2023-05-28T17:40:57.427Z,24.16
2023-05-28T17:43:02.902Z,24.16
2023-05-28T17:45:08.306Z,24.15
2023-05-28T17:47:14.365Z,24.18
2023-05-28T17:49:19.701Z,24.19
2023-05-28T17:51:25.140Z,24.2
2023-05-28T17:53:31.962Z,24.18
2023-05-28T17:55:51.993Z,24.16
2023-05-28T17:57:57.546Z,24.16
2023-05-28T18:00:02.987Z,24.17
2023-05-28T18:02:08.732Z,24.16
2023-05-28T18:04:14.051Z,24.18
2023-05-28T18:06:19.407Z,24.17
2023-05-28T18:08:24.944Z,24.17
2023-05-28T18:10:30.388Z,24.16
2023-05-28T18:12:36.127Z,24.09
2023-05-28T18:14:41.671Z,24.05
2023-05-28T18:16:47.220Z,24
2023-05-28T18:18:52.926Z,23.94
2023-05-28T18:21:06.807Z,23.92
2023-05-28T18:23:12.245Z,23.89
2023-05-28T18:25:18.005Z,23.91
2023-05-28T18:27:23.434Z,23.96
2023-05-28T18:29:29.076Z,23.97
2023-05-28T18:31:35.515Z,24.01
2023-05-28T18:33:41.288Z,24.03
2023-05-28T18:35:47.496Z,24.06
2023-05-28T18:37:53.097Z,24.06
2023-05-28T18:39:58.445Z,24.06
2023-05-28T18:42:04.287Z,24.02
2023-05-28T18:44:09.639Z,23.97
2023-05-28T18:46:16.049Z,23.95
2023-05-28T18:48:21.775Z,23.96
2023-05-28T18:50:27.273Z,23.95
2023-05-28T18:52:32.931Z,24.02
2023-05-28T18:54:38.169Z,24.08
2023-05-28T18:56:43.707Z,24.1
2023-05-28T18:58:49.149Z,24.21
2023-05-28T19:00:54.580Z,24.24
2023-05-28T19:03:00.373Z,24.25
2023-05-28T19:05:05.889Z,24.27
2023-05-28T19:07:11.215Z,24.27
2023-05-28T19:09:16.449Z,24.3
2023-05-28T19:11:21.896Z,24.32
2023-05-28T19:13:27.231Z,24.32
2023-05-28T19:15:32.560Z,24.34
2023-05-28T19:17:37.801Z,24.3
2023-05-28T19:19:43.343Z,24.25
2023-05-28T19:21:48.575Z,24.23
2023-05-28T19:23:53.937Z,24.23
2023-05-28T19:25:59.247Z,24.19
2023-05-28T19:28:04.585Z,24.19
2023-05-28T19:30:09.794Z,24.21
2023-05-28T19:32:15.264Z,24.2
2023-05-28T19:34:20.542Z,24.2
2023-05-28T19:36:26.042Z,24.16
2023-05-28T19:38:31.381Z,24.11
2023-05-28T19:40:36.724Z,24.04
2023-05-28T19:42:41.994Z,23.98
2023-05-28T19:44:47.118Z,23.96
2023-05-28T19:46:52.334Z,23.94
2023-05-28T19:48:57.660Z,23.93
2023-05-28T19:51:03.000Z,23.95
2023-05-28T19:53:08.332Z,23.9
2023-05-28T19:55:13.703Z,23.83
2023-05-28T19:57:19.010Z,23.77
2023-05-28T19:59:24.246Z,23.74
2023-05-28T20:01:29.670Z,23.71
2023-05-28T20:03:35.120Z,23.67
2023-05-28T20:05:40.366Z,23.63
2023-05-28T20:07:45.801Z,23.58
2023-05-28T20:09:51.110Z,23.56
2023-05-28T20:11:56.479Z,23.56
2023-05-28T20:14:01.716Z,23.55
2023-05-28T20:16:07.275Z,23.51
2023-05-28T20:18:12.694Z,23.48
2023-05-28T20:20:18.094Z,23.41
2023-05-28T20:22:23.469Z,23.41
2023-05-28T20:24:28.823Z,23.34
2023-05-28T20:26:34.262Z,23.32
2023-05-28T20:28:39.512Z,23.31
2023-05-28T20:30:44.974Z,23.26
2023-05-28T20:32:50.299Z,23.28
2023-05-28T20:34:55.709Z,23.25
2023-05-28T20:37:01.038Z,23.25
2023-05-28T20:39:06.380Z,23.28
2023-05-28T20:41:11.721Z,23.38
2023-05-28T20:43:17.112Z,23.49
2023-05-28T20:45:22.500Z,23.59
2023-05-28T20:47:27.879Z,23.67
2023-05-28T20:49:33.290Z,23.74
2023-05-28T20:51:38.612Z,23.8
2023-05-28T20:53:43.849Z,23.85
2023-05-28T20:55:49.292Z,23.91
2023-05-28T20:57:54.700Z,23.94
2023-05-28T21:00:00.010Z,23.97
2023-05-28T21:02:05.462Z,23.98
2023-05-28T21:04:14.838Z,24.02
2023-05-28T21:06:20.080Z,24.06
2023-05-28T21:08:25.411Z,24.09
2023-05-28T21:10:30.852Z,24.09
2023-05-28T21:12:36.304Z,24.15
2023-05-28T21:14:41.652Z,24.17
2023-05-28T21:16:46.985Z,24.19
2023-05-28T21:18:52.611Z,24.18
2023-05-28T21:20:58.191Z,24.23
2023-05-28T21:23:04.109Z,24.2
2023-05-28T21:25:09.554Z,24.22
2023-05-28T21:27:14.889Z,24.22
2023-05-28T21:29:20.255Z,24.24
2023-05-28T21:31:25.823Z,24.25
2023-05-28T21:33:31.413Z,24.27
2023-05-28T21:35:36.753Z,24.26
2023-05-28T21:37:42.290Z,24.24
2023-05-28T21:39:47.497Z,24.26
2023-05-28T21:41:52.861Z,24.27
2023-05-28T21:43:58.100Z,24.24
2023-05-28T21:46:03.296Z,24.29
2023-05-28T21:48:08.817Z,24.26
2023-05-28T21:50:14.520Z,24.27
2023-05-28T21:52:19.858Z,24.3
2023-05-28T21:54:25.097Z,24.28
2023-05-28T21:56:30.531Z,24.26
2023-05-28T21:58:35.975Z,24.22
2023-05-28T22:00:41.309Z,24.21
2023-05-28T22:02:46.802Z,24.23
2023-05-28T22:04:52.504Z,24.21
2023-05-28T22:06:57.746Z,24.19
2023-05-28T22:09:03.069Z,24.15
2023-05-28T22:11:08.513Z,24.16
2023-05-28T22:13:13.960Z,24.15
2023-05-28T22:15:19.322Z,24.13
2023-05-28T22:17:24.702Z,24.1
2023-05-28T22:19:30.173Z,24.08
2023-05-28T22:21:35.612Z,24.06
2023-05-28T22:23:40.853Z,24.05
2023-05-28T22:25:46.190Z,24.01
2023-05-28T22:27:51.629Z,24.05
2023-05-28T22:29:56.914Z,24.05
2023-05-28T22:32:02.460Z,24.05
2023-05-28T22:34:08.052Z,24.07
2023-05-28T22:36:13.290Z,24.07
2023-05-28T22:38:18.578Z,24.04
2023-05-28T22:40:23.964Z,24.02
2023-05-28T22:42:29.407Z,24.01
2023-05-28T22:44:34.845Z,24.01
2023-05-28T22:46:40.114Z,24
2023-05-28T22:48:45.422Z,24.02
2023-05-28T22:50:50.767Z,24.03
2023-05-28T22:52:56.097Z,24.02
2023-05-28T22:55:01.354Z,24.04
2023-05-28T22:57:06.690Z,24.04
2023-05-28T22:59:12.013Z,24.05
2023-05-28T23:01:17.494Z,24.07
2023-05-28T23:03:23.289Z,24.06
2023-05-28T23:05:29.014Z,24.05
2023-05-28T23:07:34.382Z,24.06
2023-05-28T23:09:39.722Z,24.07
2023-05-28T23:11:45.281Z,24.05
2023-05-28T23:13:50.805Z,24.07
2023-05-28T23:15:56.308Z,24.08
2023-05-28T23:18:01.600Z,24.07
2023-05-28T23:20:07.207Z,24.09
2023-05-28T23:22:12.669Z,24.09
2023-05-28T23:24:17.905Z,24.08
2023-05-28T23:26:23.240Z,24.06
2023-05-28T23:28:28.578Z,24.04
2023-05-28T23:30:34.353Z,24.05
2023-05-28T23:32:39.909Z,24.06
2023-05-28T23:34:45.331Z,24.05
2023-05-28T23:36:50.766Z,24.06
2023-05-28T23:38:55.986Z,24.05
2023-05-28T23:41:01.662Z,24.04
2023-05-28T23:43:07.014Z,24.05
2023-05-28T23:45:12.303Z,24.02
2023-05-28T23:47:17.855Z,24.03
2023-05-28T23:49:23.504Z,23.99
2023-05-28T23:51:28.738Z,23.97
2023-05-28T23:53:34.072Z,23.96
2023-05-28T23:55:39.403Z,23.97
2023-05-28T23:57:44.642Z,23.97
2023-05-28T23:59:49.901Z,23.95
